Time;durP1;ratioP1;P1;durP2;ratioP2;P2;SDS_P1;SDS_P2;PMS_P1;PMS_P2;Temp;Humidity;BMP_temperature;BMP_pressure;BME280_temperature;BME280_humidity;BME280_pressure;Samples;Min_cycle;Max_cycle;Signal;HPM_P1;HPM_P2
2022/10/05 00:01:47;;;;;;;8.00;6.72;;;12.50;89.50;;;;;;5067965;28;20419;-72
2022/10/05 00:04:17;;;;;;;7.40;6.80;;;12.50;89.80;;;;;;5080752;28;20422;-73
2022/10/05 00:06:45;;;;;;;7.75;6.72;;;12.50;89.90;;;;;;5083484;28;20411;-77
2022/10/05 00:09:17;;;;;;;7.80;7.00;;;12.40;90.10;;;;;;5080398;28;20884;-73
2022/10/05 00:11:44;;;;;;;7.55;6.85;;;12.40;90.30;;;;;;5068531;28;20438;-73
2022/10/05 00:14:16;;;;;;;8.00;7.20;;;12.40;90.50;;;;;;5067205;28;20440;-73
2022/10/05 00:16:45;;;;;;;7.60;6.80;;;12.40;90.40;;;;;;5058966;28;20436;-72
2022/10/05 00:19:19;;;;;;;7.50;6.80;;;12.30;90.60;;;;;;5063618;28;20438;-75
2022/10/05 00:21:46;;;;;;;7.85;7.05;;;12.30;90.80;;;;;;5071734;28;20412;-74
2022/10/05 00:24:16;;;;;;;8.00;7.30;;;12.30;90.90;;;;;;5062306;28;20424;-72
2022/10/05 00:26:42;;;;;;;7.60;7.00;;;12.30;90.90;;;;;;5071444;28;20957;-73
2022/10/05 00:29:19;;;;;;;8.20;7.40;;;12.30;91.10;;;;;;5067284;28;20441;-72
2022/10/05 00:31:48;;;;;;;7.88;7.15;;;12.30;91.20;;;;;;5067913;28;20423;-75
2022/10/05 00:34:15;;;;;;;7.93;7.20;;;12.20;91.20;;;;;;5070209;28;20431;-72
2022/10/05 00:36:42;;;;;;;7.80;7.20;;;12.20;91.30;;;;;;5071067;28;20430;-74
2022/10/05 00:39:09;;;;;;;8.25;7.45;;;12.10;91.50;;;;;;5071173;28;20411;-75
2022/10/05 00:41:50;;;;;;;8.18;7.40;;;12.10;91.50;;;;;;5071535;28;21073;-74
2022/10/05 00:44:30;;;;;;;8.20;7.40;;;12.10;91.60;;;;;;5063811;28;20427;-74
2022/10/05 00:47:11;;;;;;;8.50;7.38;;;12.10;91.70;;;;;;5070701;28;20408;-73
2022/10/05 00:49:56;;;;;;;8.80;7.50;;;12.10;91.80;;;;;;5070842;28;20420;-74
2022/10/05 00:52:32;;;;;;;8.68;7.78;;;12.10;91.80;;;;;;5070820;28;20416;-74
2022/10/05 00:55:07;;;;;;;8.98;7.90;;;12.00;91.90;;;;;;5061495;28;20429;-73
2022/10/05 00:57:46;;;;;;;9.05;8.00;;;12.00;91.90;;;;;;5070480;28;20419;-73
2022/10/05 01:00:17;;;;;;;8.50;7.70;;;12.00;92.00;;;;;;5060371;28;20427;-72
2022/10/05 01:02:53;;;;;;;8.50;7.60;;;11.90;92.00;;;;;;5063758;28;20825;-72
2022/10/05 01:05:38;;;;;;;8.67;7.80;;;11.90;92.10;;;;;;5059347;28;20455;-73
2022/10/05 01:08:14;;;;;;;8.43;7.63;;;11.80;92.20;;;;;;5067689;28;20431;-72
2022/10/05 01:10:47;;;;;;;8.50;7.70;;;11.80;92.40;;;;;;5070839;28;20897;-73
2022/10/05 01:13:23;;;;;;;8.85;7.50;;;11.80;92.50;;;;;;5070497;28;20412;-73
2022/10/05 01:15:54;;;;;;;8.95;7.90;;;11.80;92.50;;;;;;5063033;28;21240;-73
2022/10/05 01:18:31;;;;;;;8.33;7.53;;;11.80;92.60;;;;;;5080104;28;20416;-72
2022/10/05 01:21:06;;;;;;;7.90;7.30;;;11.80;92.70;;;;;;5078039;28;20430;-72
2022/10/05 01:24:00;;;;;;;9.63;8.82;;;11.80;92.60;;;;;;5074352;28;22052;-72
2022/10/05 01:26:47;;;;;;;8.90;8.00;;;11.80;92.70;;;;;;5067400;28;20797;-73
2022/10/05 01:29:20;;;;;;;8.90;8.00;;;11.80;92.70;;;;;;5074736;28;20438;-72
2022/10/05 01:31:55;;;;;;;9.90;7.97;;;11.80;92.50;;;;;;5074308;28;20422;-72
2022/10/05 01:34:32;;;;;;;8.17;7.37;;;11.80;92.60;;;;;;5068810;28;20444;-72
2022/10/05 01:37:08;;;;;;;8.93;8.13;;;11.80;92.70;;;;;;5069735;28;20428;-73
2022/10/05 01:39:46;;;;;;;8.23;7.53;;;11.70;92.70;;;;;;5070511;28;20416;-73
2022/10/05 01:42:21;;;;;;;8.48;7.68;;;11.70;92.80;;;;;;5070203;28;20932;-72
2022/10/05 01:44:59;;;;;;;8.77;7.97;;;11.70;92.90;;;;;;5061156;28;20440;-73
2022/10/05 01:47:36;;;;;;;9.02;8.18;;;11.60;92.90;;;;;;5069922;28;20411;-75
2022/10/05 01:50:08;;;;;;;9.70;8.70;;;11.60;93.00;;;;;;5068175;28;20435;-73
2022/10/05 01:52:43;;;;;;;8.05;7.13;;;11.60;93.10;;;;;;5061114;28;20856;-71
2022/10/05 01:55:22;;;;;;;8.10;7.40;;;11.60;93.00;;;;;;5069883;28;20413;-73
2022/10/05 01:58:00;;;;;;;9.20;8.40;;;11.60;93.00;;;;;;5069856;28;20423;-73
2022/10/05 02:00:32;;;;;;;8.80;8.00;;;11.50;93.10;;;;;;5059877;28;20522;-74
2022/10/05 02:03:04;;;;;;;9.32;8.38;;;11.50;93.20;;;;;;5070789;28;20817;-72
2022/10/05 02:05:39;;;;;;;9.35;8.45;;;11.50;93.40;;;;;;5070086;28;20902;-73
2022/10/05 02:08:09;;;;;;;9.02;8.23;;;11.50;93.30;;;;;;5069910;28;20419;-73
2022/10/05 02:10:40;;;;;;;9.05;7.97;;;11.40;93.30;;;;;;5058001;28;20428;-72
2022/10/05 02:13:12;;;;;;;9.30;8.30;;;11.30;93.50;;;;;;5069939;28;20408;-72
2022/10/05 02:15:44;;;;;;;9.00;8.10;;;11.40;93.50;;;;;;5056963;28;20859;-73
2022/10/05 02:18:14;;;;;;;9.38;8.57;;;11.30;93.60;;;;;;5071014;28;20418;-71
2022/10/05 02:20:43;;;;;;;9.02;8.23;;;11.30;93.70;;;;;;5060793;28;20429;-73
2022/10/05 02:23:14;;;;;;;9.85;8.95;;;11.30;93.70;;;;;;5068666;28;20473;-72
2022/10/05 02:25:45;;;;;;;9.05;8.30;;;11.30;93.70;;;;;;5060691;28;20473;-73
2022/10/05 02:28:15;;;;;;;9.30;8.40;;;11.30;93.70;;;;;;5060913;28;20423;-72
2022/10/05 02:30:50;;;;;;;9.00;8.30;;;11.30;93.80;;;;;;5058937;28;20436;-74
2022/10/05 02:33:23;;;;;;;9.53;8.73;;;11.30;93.80;;;;;;5061435;28;20420;-75
2022/10/05 02:35:50;;;;;;;8.98;8.07;;;11.30;93.90;;;;;;5067882;28;20960;-73
2022/10/05 02:38:26;;;;;;;8.80;8.10;;;11.20;93.80;;;;;;5069172;28;20416;-74
2022/10/05 02:40:58;;;;;;;9.10;8.00;;;11.20;94.00;;;;;;5069260;28;20422;-74
2022/10/05 02:43:39;;;;;;;9.63;8.77;;;11.20;94.00;;;;;;5068418;28;20937;-74
2022/10/05 02:46:18;;;;;;;9.82;8.77;;;11.20;94.10;;;;;;5059704;28;20415;-74
2022/10/05 02:48:54;;;;;;;9.02;8.23;;;11.30;94.10;;;;;;5068877;28;20415;-74
2022/10/05 02:51:25;;;;;;;9.10;8.30;;;11.30;93.90;;;;;;5069358;28;20415;-73
2022/10/05 02:54:05;;;;;;;9.60;8.70;;;11.20;94.00;;;;;;5071397;28;20415;-73
2022/10/05 02:56:39;;;;;;;9.57;8.68;;;11.20;93.90;;;;;;5064328;28;21094;-73
2022/10/05 02:59:14;;;;;;;8.93;8.13;;;11.20;93.90;;;;;;5073205;28;20418;-73
2022/10/05 03:01:49;;;;;;;9.10;8.20;;;11.20;94.00;;;;;;5060586;28;20427;-73
2022/10/05 03:04:28;;;;;;;9.50;8.60;;;11.20;94.00;;;;;;5048253;28;20892;-73
2022/10/05 03:07:04;;;;;;;9.10;8.20;;;11.20;94.00;;;;;;5055858;28;20432;-72
2022/10/05 03:09:38;;;;;;;10.48;8.70;;;11.20;93.90;;;;;;5064585;28;20949;-73
2022/10/05 03:12:12;;;;;;;8.90;8.10;;;11.20;93.90;;;;;;5068448;28;20530;-73
2022/10/05 03:14:47;;;;;;;9.90;8.90;;;11.20;93.90;;;;;;5067002;28;20427;-73
2022/10/05 03:17:19;;;;;;;9.43;8.63;;;11.20;94.00;;;;;;5060080;28;20434;-72
2022/10/05 03:20:08;;;;;;;9.63;8.60;;;11.20;94.00;;;;;;5067213;28;20442;-72
2022/10/05 03:22:48;;;;;;;9.85;8.95;;;11.10;94.10;;;;;;5055052;28;20429;-75
2022/10/05 03:27:55;;;;;;;9.25;8.43;;;11.10;94.20;;;;;;5082237;22;20447;-69
2022/10/05 03:30:25;;;;;;;10.48;9.50;;;11.10;94.20;;;;;;5061947;28;20794;-69
2022/10/05 03:33:02;;;;;;;10.68;9.05;;;11.10;94.20;;;;;;5062753;28;20431;-69
2022/10/05 03:35:32;;;;;;;10.50;9.40;;;11.10;94.20;;;;;;5064673;28;20912;-68
2022/10/05 03:38:11;;;;;;;9.70;8.70;;;11.10;94.30;;;;;;5064783;28;20430;-69
2022/10/05 03:40:44;;;;;;;9.88;9.07;;;11.10;94.30;;;;;;5064715;28;20488;-67
2022/10/05 03:43:46;;;;;;;10.33;9.10;;;11.10;94.40;;;;;;5063711;28;20419;-69
2022/10/05 03:46:19;;;;;;;9.67;8.77;;;11.10;94.40;;;;;;5063016;28;20430;-68
2022/10/05 03:48:55;;;;;;;10.52;9.05;;;11.20;94.40;;;;;;5064398;28;20415;-68
2022/10/05 03:51:28;;;;;;;9.80;8.80;;;11.20;94.30;;;;;;5063623;28;20426;-68
2022/10/05 03:53:59;;;;;;;9.70;8.80;;;11.20;94.40;;;;;;5061786;28;20905;-68
2022/10/05 03:56:32;;;;;;;9.40;8.30;;;11.30;94.30;;;;;;5064749;28;20438;-68
2022/10/05 03:59:03;;;;;;;10.13;9.00;;;11.30;94.30;;;;;;5061734;28;20432;-69
2022/10/05 04:01:38;;;;;;;10.30;9.10;;;11.30;94.40;;;;;;5063319;28;20439;-68
2022/10/05 04:04:11;;;;;;;9.50;8.60;;;11.30;94.40;;;;;;5064262;28;20426;-68
2022/10/05 04:06:43;;;;;;;9.50;8.60;;;11.30;94.20;;;;;;5062548;28;20407;-68
2022/10/05 04:09:16;;;;;;;10.40;9.40;;;11.40;94.20;;;;;;5054905;28;20791;-68
2022/10/05 04:11:48;;;;;;;9.30;8.30;;;11.40;94.10;;;;;;5062910;28;20507;-68
2022/10/05 04:14:19;;;;;;;10.00;9.00;;;11.30;94.10;;;;;;5054783;28;20427;-68
2022/10/05 04:16:49;;;;;;;9.88;8.98;;;11.30;94.20;;;;;;5062552;28;20527;-68
2022/10/05 04:19:22;;;;;;;11.60;9.70;;;11.30;94.20;;;;;;5064025;28;20423;-68
2022/10/05 04:21:52;;;;;;;9.77;8.87;;;11.30;94.10;;;;;;5063963;28;20506;-68
2022/10/05 04:24:24;;;;;;;9.60;8.80;;;11.20;94.10;;;;;;5062955;28;20455;-68
2022/10/05 04:26:55;;;;;;;9.30;8.40;;;11.20;94.30;;;;;;5063049;28;20589;-68
2022/10/05 04:29:30;;;;;;;9.70;8.70;;;11.20;94.40;;;;;;5057266;28;20917;-68
2022/10/05 04:32:22;;;;;;;10.07;9.07;;;11.20;94.40;;;;;;5060972;28;20974;-68
2022/10/05 04:35:01;;;;;;;9.45;8.65;;;11.20;94.50;;;;;;5064148;28;20419;-68
2022/10/05 04:37:39;;;;;;;9.55;8.75;;;11.20;94.60;;;;;;5063823;28;20427;-68
2022/10/05 04:40:22;;;;;;;10.45;9.55;;;11.20;94.50;;;;;;5055054;28;20423;-69
2022/10/05 04:43:02;;;;;;;10.10;9.20;;;11.20;94.50;;;;;;5065731;28;20442;-68
2022/10/05 04:45:41;;;;;;;9.35;8.45;;;11.30;94.50;;;;;;5067480;28;20583;-69
2022/10/05 04:48:30;;;;;;;9.52;8.73;;;11.30;94.50;;;;;;5054394;28;20906;-68
2022/10/05 04:51:12;;;;;;;10.18;9.38;;;11.30;94.40;;;;;;5054592;28;20416;-68
2022/10/05 04:53:46;;;;;;;9.85;8.85;;;11.30;94.50;;;;;;5066243;28;20487;-68
2022/10/05 04:56:19;;;;;;;9.95;9.05;;;11.40;94.20;;;;;;5067464;28;20415;-68
2022/10/05 04:58:59;;;;;;;9.13;8.27;;;11.40;94.20;;;;;;5066628;28;20439;-68
2022/10/05 05:01:45;;;;;;;9.77;8.88;;;11.40;94.00;;;;;;5060585;28;20457;-69
2022/10/05 05:04:38;;;;;;;9.02;8.23;;;11.50;93.90;;;;;;5067110;28;20420;-68
2022/10/05 05:07:17;;;;;;;9.23;8.48;;;11.50;93.90;;;;;;5065991;28;20428;-68
2022/10/05 05:10:01;;;;;;;10.07;8.88;;;11.50;93.60;;;;;;5067671;28;20446;-68
2022/10/05 05:12:40;;;;;;;9.70;8.90;;;11.50;93.50;;;;;;5063319;28;20974;-68
2022/10/05 05:15:30;;;;;;;9.25;8.38;;;11.50;93.40;;;;;;5064682;28;20438;-69
2022/10/05 05:18:16;;;;;;;10.15;9.25;;;11.50;93.50;;;;;;5064916;28;20531;-69
2022/10/05 05:20:51;;;;;;;9.13;8.40;;;11.60;93.50;;;;;;5067472;28;20515;-68
2022/10/05 05:23:27;;;;;;;9.60;8.70;;;11.60;93.30;;;;;;5063986;28;21132;-68
2022/10/05 05:26:05;;;;;;;9.68;8.68;;;11.60;93.30;;;;;;5064277;28;20431;-68
2022/10/05 05:28:42;;;;;;;9.50;8.60;;;11.70;93.40;;;;;;5066015;28;20431;-68
2022/10/05 05:31:16;;;;;;;10.02;9.13;;;11.60;93.60;;;;;;5066808;28;20422;-68
2022/10/05 05:33:54;;;;;;;10.50;9.50;;;11.60;93.90;;;;;;5066643;28;20419;-68
2022/10/05 05:36:46;;;;;;;10.00;9.00;;;11.60;93.60;;;;;;5066681;28;20510;-69
2022/10/05 05:39:25;;;;;;;10.65;9.65;;;11.60;93.70;;;;;;5055871;28;20507;-68
2022/10/05 05:42:00;;;;;;;10.75;9.85;;;11.50;93.70;;;;;;5066996;28;20416;-68
2022/10/05 05:44:29;;;;;;;9.40;8.60;;;11.60;93.70;;;;;;5065748;28;20580;-68
2022/10/05 05:47:00;;;;;;;10.75;9.75;;;11.50;93.70;;;;;;5064142;28;20439;-69
2022/10/05 05:49:38;;;;;;;10.35;9.45;;;11.60;93.60;;;;;;5066510;28;20411;-69
2022/10/05 05:52:13;;;;;;;10.10;9.10;;;11.50;93.60;;;;;;5066083;28;20426;-69
2022/10/05 05:54:46;;;;;;;10.35;9.50;;;11.50;93.60;;;;;;5066787;28;21095;-68
2022/10/05 05:57:16;;;;;;;11.05;9.85;;;11.50;93.50;;;;;;5057538;28;20455;-68
2022/10/05 05:59:56;;;;;;;10.52;9.52;;;11.50;93.50;;;;;;5066131;28;20422;-68
2022/10/05 06:02:28;;;;;;;10.50;9.40;;;11.60;93.40;;;;;;5064832;28;20427;-69
2022/10/05 06:04:58;;;;;;;10.45;9.45;;;11.60;93.40;;;;;;5066358;28;20434;-68
2022/10/05 06:07:29;;;;;;;10.00;9.10;;;11.60;93.50;;;;;;5066070;28;20439;-68
2022/10/05 06:10:03;;;;;;;10.00;9.20;;;11.60;93.40;;;;;;5066059;28;20419;-68
2022/10/05 06:12:33;;;;;;;10.40;9.30;;;11.70;93.50;;;;;;5063508;28;20431;-68
2022/10/05 06:15:04;;;;;;;9.00;8.30;;;11.70;93.50;;;;;;5065755;28;20895;-68
2022/10/05 06:17:37;;;;;;;9.20;8.40;;;11.80;93.30;;;;;;5061957;28;20454;-68
2022/10/05 06:20:09;;;;;;;9.73;8.82;;;11.80;93.00;;;;;;5065811;28;20421;-68
2022/10/05 06:22:40;;;;;;;9.15;8.35;;;11.90;92.90;;;;;;5065462;28;21004;-69
2022/10/05 06:25:23;;;;;;;9.25;8.20;;;12.00;92.80;;;;;;5074712;28;20443;-68
2022/10/05 06:28:03;;;;;;;9.20;8.40;;;12.00;92.80;;;;;;5063653;28;20901;-68
2022/10/05 06:30:41;;;;;;;10.52;8.88;;;12.10;92.40;;;;;;5063915;28;20454;-69
2022/10/05 06:33:17;;;;;;;9.18;8.40;;;12.20;92.40;;;;;;5064919;28;20459;-69
2022/10/05 06:36:02;;;;;;;8.65;7.93;;;12.20;92.30;;;;;;5064543;28;20908;-69
2022/10/05 06:38:59;;;;;;;8.90;8.10;;;12.30;92.70;;;;;;5064765;28;20538;-69
2022/10/05 06:41:40;;;;;;;8.73;8.00;;;12.40;92.10;;;;;;5064288;28;20412;-68
2022/10/05 06:44:14;;;;;;;9.23;8.32;;;12.40;92.00;;;;;;5062528;28;20534;-68
2022/10/05 06:46:52;;;;;;;9.00;8.20;;;12.50;91.70;;;;;;5064467;28;20897;-68
2022/10/05 06:49:23;;;;;;;9.05;8.32;;;12.60;91.50;;;;;;5064938;28;20416;-69
2022/10/05 06:51:54;;;;;;;9.07;8.18;;;12.60;91.40;;;;;;5064871;28;20419;-68
2022/10/05 06:54:30;;;;;;;9.77;8.87;;;12.60;91.50;;;;;;5064841;28;20511;-69
2022/10/05 06:57:04;;;;;;;9.98;9.07;;;12.70;91.50;;;;;;5063524;28;20546;-68
2022/10/05 06:59:40;;;;;;;9.93;9.02;;;12.70;91.40;;;;;;5063935;28;20439;-67
2022/10/05 07:02:14;;;;;;;9.20;8.50;;;12.70;91.30;;;;;;5064337;28;20430;-68
2022/10/05 07:04:54;;;;;;;9.43;8.40;;;12.70;91.20;;;;;;5065252;28;21041;-68
2022/10/05 07:07:28;;;;;;;8.95;8.15;;;12.70;91.00;;;;;;5064733;28;20407;-68
2022/10/05 07:10:08;;;;;;;9.40;8.50;;;12.70;91.20;;;;;;5063431;28;20435;-68
2022/10/05 07:12:55;;;;;;;8.98;8.27;;;12.70;91.10;;;;;;5062117;28;20893;-68
2022/10/05 07:15:38;;;;;;;8.57;7.80;;;12.70;91.10;;;;;;5060883;28;20449;-69
2022/10/05 07:18:28;;;;;;;8.65;7.82;;;12.80;91.20;;;;;;5051313;28;20488;-68
2022/10/05 07:21:03;;;;;;;9.33;8.43;;;12.80;91.10;;;;;;5064671;28;20944;-68
2022/10/05 07:23:43;;;;;;;9.18;8.30;;;12.90;91.10;;;;;;5072084;28;20887;-68
2022/10/05 07:26:21;;;;;;;9.02;8.18;;;12.90;90.80;;;;;;5062251;28;20442;-68
2022/10/05 07:29:09;;;;;;;8.70;7.90;;;13.00;90.70;;;;;;5064681;28;20447;-69
2022/10/05 07:31:46;;;;;;;9.20;8.30;;;13.00;90.60;;;;;;5064716;28;20428;-68
2022/10/05 07:34:20;;;;;;;8.82;8.02;;;13.10;90.40;;;;;;5063896;28;20925;-68
2022/10/05 07:39:44;;;;;;;8.30;7.60;;;13.20;90.30;;;;;;5063334;28;20425;-69
2022/10/05 07:42:19;;;;;;;9.40;8.60;;;13.20;90.30;;;;;;5062001;28;20454;-68
2022/10/05 07:44:52;;;;;;;8.63;7.93;;;13.30;90.10;;;;;;5064740;28;20871;-69
2022/10/05 07:47:29;;;;;;;9.10;8.40;;;13.30;90.10;;;;;;5064310;28;20513;-68
2022/10/05 07:50:02;;;;;;;9.30;8.50;;;13.20;90.40;;;;;;5064428;28;20431;-68
2022/10/05 07:52:36;;;;;;;9.68;8.88;;;13.30;90.50;;;;;;5064253;28;20424;-68
2022/10/05 07:55:10;;;;;;;9.60;8.88;;;13.30;90.00;;;;;;5062509;28;20431;-69
2022/10/05 07:57:44;;;;;;;9.98;9.07;;;13.30;90.10;;;;;;5064100;28;20428;-68
2022/10/05 08:00:15;;;;;;;10.18;9.00;;;13.30;90.20;;;;;;5063556;28;20755;-68
2022/10/05 08:02:47;;;;;;;9.90;9.10;;;13.40;90.10;;;;;;5064446;28;20411;-68
2022/10/05 08:05:21;;;;;;;10.40;9.45;;;13.40;90.10;;;;;;5064121;28;20427;-68
2022/10/05 08:07:51;;;;;;;10.13;9.32;;;13.50;90.00;;;;;;5063545;28;20794;-68
2022/10/05 08:10:25;;;;;;;10.23;9.43;;;13.50;90.10;;;;;;5064522;28;20459;-68
2022/10/05 08:13:01;;;;;;;10.18;9.27;;;13.50;90.10;;;;;;5061563;28;20407;-68
2022/10/05 08:15:34;;;;;;;9.98;9.13;;;13.50;90.00;;;;;;5067731;28;20556;-68
2022/10/05 08:18:04;;;;;;;10.02;9.10;;;13.60;90.10;;;;;;5068297;28;20965;-68
2022/10/05 08:20:41;;;;;;;10.48;9.57;;;13.60;90.00;;;;;;5068342;28;20430;-68
2022/10/05 08:23:22;;;;;;;10.20;9.40;;;13.70;90.00;;;;;;5066617;28;20435;-68
2022/10/05 08:26:05;;;;;;;9.60;8.80;;;13.70;89.40;;;;;;5067281;28;20419;-69
2022/10/05 08:28:36;;;;;;;10.80;9.90;;;13.80;89.20;;;;;;5068099;28;20407;-69
2022/10/05 08:31:13;;;;;;;10.05;9.05;;;13.90;89.00;;;;;;5055145;28;20860;-68
2022/10/05 08:33:52;;;;;;;9.90;9.00;;;13.90;88.90;;;;;;5067498;28;20415;-68
2022/10/05 08:36:28;;;;;;;9.50;8.60;;;13.90;88.50;;;;;;5065821;28;20941;-68
2022/10/05 08:38:58;;;;;;;10.40;9.40;;;14.00;88.50;;;;;;5066252;28;20430;-68
2022/10/05 08:42:06;;;;;;;9.30;8.48;;;14.00;88.30;;;;;;5068392;28;20492;-68
2022/10/05 08:45:10;;;;;;;9.87;9.07;;;14.10;88.10;;;;;;5028894;28;21097;-68
2022/10/05 08:48:16;;;;;;;9.10;8.30;;;14.20;87.80;;;;;;5057114;28;20423;-69
2022/10/05 08:51:15;;;;;;;9.68;8.88;;;14.20;87.90;;;;;;5035840;28;20443;-69
2022/10/05 08:54:14;;;;;;;9.13;8.33;;;14.30;87.30;;;;;;5066732;28;20407;-69
2022/10/05 08:56:48;;;;;;;9.18;8.27;;;14.40;87.00;;;;;;5065320;28;20424;-69
2022/10/05 08:59:38;;;;;;;8.45;7.75;;;14.50;86.90;;;;;;5059317;28;20427;-69
2022/10/05 09:02:23;;;;;;;9.45;8.45;;;14.60;86.50;;;;;;5065356;28;20478;-69
2022/10/05 09:05:08;;;;;;;8.10;7.40;;;14.70;85.90;;;;;;5067643;28;20446;-69
2022/10/05 09:08:03;;;;;;;7.87;7.27;;;14.80;85.60;;;;;;5067255;28;20723;-69
2022/10/05 09:11:02;;;;;;;8.00;7.35;;;14.90;85.10;;;;;;5066732;28;20411;-69
2022/10/05 09:13:43;;;;;;;7.53;6.93;;;15.10;84.30;;;;;;5056278;28;20416;-68
2022/10/05 09:16:25;;;;;;;7.50;6.90;;;15.20;83.70;;;;;;5063173;28;20439;-68
2022/10/05 09:19:29;;;;;;;6.90;6.30;;;15.30;82.80;;;;;;5063314;28;20435;-69
2022/10/05 09:21:58;;;;;;;7.22;6.60;;;15.40;83.10;;;;;;5057189;28;20424;-69
2022/10/05 09:24:37;;;;;;;6.57;5.97;;;15.50;82.30;;;;;;5066462;28;20454;-68
2022/10/05 09:27:12;;;;;;;6.57;5.97;;;15.70;81.50;;;;;;5066007;28;20428;-69
2022/10/05 09:30:16;;;;;;;6.90;6.30;;;15.70;81.00;;;;;;5067299;28;20431;-69
2022/10/05 09:33:22;;;;;;;6.38;5.88;;;15.90;80.80;;;;;;5053100;28;20765;-69
2022/10/05 09:36:20;;;;;;;6.60;5.90;;;16.00;80.30;;;;;;5064586;28;20506;-69
2022/10/05 09:39:07;;;;;;;6.27;5.77;;;16.20;79.90;;;;;;5066522;28;20438;-68
2022/10/05 09:42:04;;;;;;;6.40;5.85;;;16.30;79.00;;;;;;5066777;28;20412;-69
2022/10/05 09:44:55;;;;;;;5.80;5.40;;;16.40;78.30;;;;;;5026293;28;21003;-69
2022/10/05 09:48:03;;;;;;;5.97;5.38;;;16.60;78.00;;;;;;5052853;28;20438;-69
2022/10/05 09:51:15;;;;;;;5.80;5.20;;;16.70;77.40;;;;;;5044354;28;20537;-69
2022/10/05 09:54:09;;;;;;;4.90;4.50;;;16.90;76.70;;;;;;5037654;28;20885;-69
2022/10/05 09:57:02;;;;;;;6.05;5.55;;;17.10;76.60;;;;;;5066079;28;20415;-69
2022/10/05 10:00:04;;;;;;;5.25;4.72;;;17.40;75.30;;;;;;5066269;28;21132;-69
2022/10/05 10:02:51;;;;;;;4.43;4.03;;;17.80;73.40;;;;;;5056416;28;20502;-69
2022/10/05 10:05:55;;;;;;;4.50;4.05;;;18.10;71.90;;;;;;5064555;28;20530;-69
2022/10/05 10:08:32;;;;;;;5.07;4.07;;;18.30;70.30;;;;;;5064284;28;20735;-70
2022/10/05 10:11:11;;;;;;;3.70;3.30;;;18.30;70.10;;;;;;5065790;28;20427;-69
2022/10/05 10:14:09;;;;;;;4.00;3.70;;;18.60;70.50;;;;;;5065493;28;20415;-69
2022/10/05 10:16:56;;;;;;;3.20;3.00;;;19.10;67.70;;;;;;5060261;28;20420;-69
2022/10/05 10:19:53;;;;;;;3.50;3.20;;;19.50;66.00;;;;;;5063599;28;20435;-69
2022/10/05 10:22:48;;;;;;;3.07;2.70;;;20.00;64.10;;;;;;5053162;28;21030;-69
2022/10/05 10:25:30;;;;;;;3.20;2.90;;;20.30;63.90;;;;;;5063631;28;20439;-69
2022/10/05 10:28:36;;;;;;;2.90;2.70;;;20.50;61.10;;;;;;5062358;28;20431;-69
2022/10/05 10:31:37;;;;;;;3.10;2.80;;;20.70;60.40;;;;;;5065014;28;20921;-69
2022/10/05 10:34:53;;;;;;;3.00;2.80;;;20.80;59.90;;;;;;5064047;28;20424;-69
2022/10/05 10:37:38;;;;;;;3.63;2.90;;;20.80;59.70;;;;;;5064431;28;20415;-71
2022/10/05 10:40:26;;;;;;;4.57;3.00;;;21.10;59.60;;;;;;5065061;28;20864;-71
2022/10/05 10:43:22;;;;;;;3.30;3.00;;;21.60;57.80;;;;;;5064567;28;20427;-71
2022/10/05 10:45:59;;;;;;;3.38;3.17;;;21.90;57.10;;;;;;5062298;28;20411;-71
2022/10/05 10:48:53;;;;;;;3.47;3.00;;;21.90;57.50;;;;;;5065492;28;20873;-71
2022/10/05 10:51:50;;;;;;;4.55;3.10;;;21.90;57.10;;;;;;5056854;28;20527;-71
2022/10/05 10:54:36;;;;;;;3.47;3.00;;;22.10;56.50;;;;;;5064919;28;20411;-72
2022/10/05 10:57:09;;;;;;;3.30;3.00;;;22.10;56.20;;;;;;5052937;28;20415;-71
2022/10/05 11:00:03;;;;;;;4.72;3.00;;;22.10;56.50;;;;;;5063119;28;20432;-71
2022/10/05 11:02:56;;;;;;;3.50;3.20;;;22.50;55.90;;;;;;5058787;28;20469;-71
2022/10/05 11:05:36;;;;;;;3.45;3.15;;;22.60;55.30;;;;;;5031467;28;20431;-71
2022/10/05 11:08:47;;;;;;;2.85;2.65;;;22.80;54.50;;;;;;5064767;28;20487;-71
2022/10/05 11:11:36;;;;;;;2.67;2.47;;;22.80;54.70;;;;;;5014765;28;20427;-71
2022/10/05 11:14:23;;;;;;;2.80;2.50;;;22.90;53.70;;;;;;5062898;28;20515;-71
2022/10/05 11:17:30;;;;;;;2.92;2.40;;;23.20;53.00;;;;;;5063033;28;20443;-71
2022/10/05 11:20:20;;;;;;;2.53;2.30;;;23.60;51.70;;;;;;5060585;28;20434;-72
2022/10/05 11:22:57;;;;;;;2.53;2.17;;;24.00;50.70;;;;;;5066191;28;20423;-71
2022/10/05 11:25:52;;;;;;;2.28;2.08;;;24.20;49.90;;;;;;5074211;28;20420;-72
2022/10/05 11:28:40;;;;;;;1.50;1.40;;;24.30;49.40;;;;;;5064902;28;20412;-72
2022/10/05 11:31:36;;;;;;;2.30;1.38;;;24.40;47.60;;;;;;5035034;28;20906;-71
2022/10/05 11:34:35;;;;;;;1.40;1.30;;;24.30;46.40;;;;;;5062519;28;20466;-71
2022/10/05 11:37:30;;;;;;;1.50;1.20;;;24.20;46.40;;;;;;5056473;28;20507;-70
2022/10/05 11:40:33;;;;;;;2.28;1.52;;;23.90;46.00;;;;;;5062359;28;20435;-70
2022/10/05 11:43:31;;;;;;;1.60;1.50;;;23.70;46.80;;;;;;5052448;28;20411;-71
2022/10/05 11:46:10;;;;;;;4.78;3.97;;;23.70;47.20;;;;;;5043084;28;20435;-71
2022/10/05 11:48:55;;;;;;;2.08;1.40;;;24.10;47.70;;;;;;5062320;28;20427;-71
2022/10/05 11:51:34;;;;;;;2.13;1.40;;;24.30;44.90;;;;;;5057894;28;20431;-71
2022/10/05 11:54:16;;;;;;;1.93;1.40;;;24.20;45.30;;;;;;5063190;28;20853;-71
2022/10/05 11:56:49;;;;;;;1.40;1.30;;;24.20;45.30;;;;;;5063864;28;20424;-72
2022/10/05 11:59:20;;;;;;;2.20;1.20;;;24.10;45.50;;;;;;5064117;28;20435;-71
2022/10/05 12:01:55;;;;;;;2.03;1.20;;;24.00;45.60;;;;;;5064233;28;20415;-70
2022/10/05 12:04:34;;;;;;;1.52;1.10;;;24.10;45.30;;;;;;5061871;28;20755;-71
2022/10/05 12:07:09;;;;;;;1.93;1.10;;;23.90;45.50;;;;;;5063792;28;20483;-71
2022/10/05 12:10:15;;;;;;;1.77;1.20;;;23.80;45.80;;;;;;5063991;28;20412;-71
2022/10/05 12:12:50;;;;;;;1.52;1.42;;;23.80;46.00;;;;;;5059320;28;20469;-71
2022/10/05 12:15:22;;;;;;;3.10;1.30;;;24.10;45.70;;;;;;5064340;28;20422;-70
2022/10/05 12:17:56;;;;;;;1.30;1.20;;;23.90;45.50;;;;;;5062127;28;20567;-71
2022/10/05 12:20:29;;;;;;;2.28;1.48;;;23.60;46.80;;;;;;5063891;28;20427;-71
2022/10/05 12:22:59;;;;;;;2.83;1.35;;;23.70;47.60;;;;;;5054023;28;20714;-71
2022/10/05 12:25:32;;;;;;;1.30;1.00;;;23.60;46.50;;;;;;5070401;28;20411;-70
2022/10/05 12:28:03;;;;;;;2.27;1.40;;;23.40;47.70;;;;;;5064550;28;20419;-70
2022/10/05 12:30:57;;;;;;;1.77;1.20;;;23.60;47.00;;;;;;5064409;28;20789;-71
2022/10/05 12:33:33;;;;;;;3.20;1.42;;;23.80;46.70;;;;;;5060691;28;20515;-71
2022/10/05 12:36:06;;;;;;;2.05;1.30;;;23.80;45.60;;;;;;5061695;28;20431;-70
2022/10/05 12:38:38;;;;;;;1.70;1.23;;;23.70;46.10;;;;;;5063918;28;20766;-71
2022/10/05 12:41:14;;;;;;;1.58;1.20;;;23.60;46.40;;;;;;5064367;28;20778;-71
2022/10/05 12:43:57;;;;;;;1.63;1.10;;;23.80;45.90;;;;;;5063975;28;20426;-71
2022/10/05 12:46:31;;;;;;;1.90;1.30;;;24.10;46.40;;;;;;5064259;28;20437;-69
2022/10/05 12:49:21;;;;;;;1.73;1.23;;;24.60;44.20;;;;;;5062088;28;20423;-69
2022/10/05 12:51:56;;;;;;;3.00;1.58;;;25.00;44.30;;;;;;5063927;28;20420;-69
2022/10/05 12:54:30;;;;;;;1.90;1.13;;;25.20;43.40;;;;;;5063982;28;20429;-69
2022/10/05 12:57:01;;;;;;;1.70;1.48;;;25.50;43.70;;;;;;5064133;28;20422;-69
2022/10/05 12:59:38;;;;;;;1.40;1.30;;;25.80;42.60;;;;;;5064824;28;20515;-69
2022/10/05 13:02:20;;;;;;;1.40;1.20;;;25.90;42.40;;;;;;5066040;28;20494;-70
2022/10/05 13:04:56;;;;;;;1.67;1.20;;;26.00;42.20;;;;;;5066685;28;20488;-70
2022/10/05 13:07:43;;;;;;;2.00;1.20;;;25.80;42.40;;;;;;5066962;28;20496;-70
2022/10/05 13:10:21;;;;;;;2.65;1.40;;;26.00;43.10;;;;;;5067140;28;20420;-70
2022/10/05 13:13:00;;;;;;;2.13;1.35;;;25.80;42.20;;;;;;5066522;28;20515;-69
2022/10/05 13:15:30;;;;;;;2.60;1.40;;;25.60;41.90;;;;;;5067623;28;20881;-69
2022/10/05 13:18:10;;;;;;;1.80;1.30;;;25.20;43.30;;;;;;5063008;28;20432;-71
2022/10/05 13:20:45;;;;;;;1.80;1.40;;;24.60;44.60;;;;;;5066960;28;20523;-71
2022/10/05 13:23:17;;;;;;;1.92;1.30;;;24.30;45.90;;;;;;5071522;28;20895;-72
2022/10/05 13:25:50;;;;;;;1.70;1.10;;;24.20;46.30;;;;;;5070624;28;20420;-71
2022/10/05 13:28:21;;;;;;;2.00;1.30;;;24.00;46.30;;;;;;5065698;28;20463;-71
2022/10/05 13:31:00;;;;;;;3.50;1.50;;;24.00;46.10;;;;;;5066462;28;20874;-71
2022/10/05 13:33:47;;;;;;;1.50;1.20;;;24.20;47.00;;;;;;5065479;28;20528;-71
2022/10/05 13:36:21;;;;;;;1.70;1.20;;;24.50;47.10;;;;;;5055855;28;20468;-72
2022/10/05 13:38:55;;;;;;;2.90;1.40;;;24.20;45.80;;;;;;5066522;28;20422;-72
2022/10/05 13:41:33;;;;;;;3.10;1.30;;;24.10;47.80;;;;;;5065380;28;20556;-71
2022/10/05 13:44:14;;;;;;;1.63;1.30;;;23.90;46.60;;;;;;5066476;28;20415;-73
2022/10/05 13:46:48;;;;;;;1.80;1.30;;;23.90;47.50;;;;;;5064997;28;20903;-71
2022/10/05 13:49:25;;;;;;;4.65;1.55;;;23.90;46.80;;;;;;5058377;28;20404;-72
2022/10/05 13:52:00;;;;;;;1.80;1.50;;;23.60;47.70;;;;;;5065416;28;20486;-72
2022/10/05 13:54:36;;;;;;;1.80;1.70;;;23.60;48.20;;;;;;5061705;28;20762;-71